createdAt,value
2019-04-07T00:01:23.185Z,45.80
2019-04-07T00:03:53.260Z,45.70
2019-04-07T00:06:23.600Z,45.60
2019-04-07T00:08:54.646Z,45.60
2019-04-07T00:11:28.066Z,45.70
2019-04-07T00:13:57.947Z,45.80
2019-04-07T00:16:29.743Z,45.80
2019-04-07T00:19:01.833Z,45.80
2019-04-07T00:21:42.848Z,45.90
2019-04-07T00:24:17.129Z,45.90
2019-04-07T00:26:51.521Z,46.00
2019-04-07T00:29:20.554Z,46.00
2019-04-07T00:32:16.802Z,45.90
2019-04-07T00:34:27.954Z,46.00
2019-04-07T00:37:00.537Z,46.20
2019-04-07T00:39:30.140Z,46.20
2019-04-07T00:42:14.776Z,46.10
2019-04-07T00:44:45.649Z,46.20
2019-04-07T00:47:15.292Z,46.40
2019-04-07T00:49:47.622Z,46.40
2019-04-07T00:52:23.715Z,46.50
2019-04-07T00:54:53.506Z,46.70
2019-04-07T00:57:25.522Z,46.80
2019-04-07T00:59:56.963Z,46.90
2019-04-07T01:02:27.635Z,47.10
2019-04-07T01:04:57.442Z,47.20
2019-04-07T01:07:26.678Z,47.30
2019-04-07T01:10:02.851Z,47.20
2019-04-07T01:12:32.633Z,47.00
2019-04-07T01:15:09.016Z,46.90
2019-04-07T01:17:37.969Z,46.90
2019-04-07T01:20:07.362Z,47.10
2019-04-07T01:22:52.731Z,47.40
2019-04-07T01:25:22.552Z,47.60
2019-04-07T01:27:52.379Z,47.70
2019-04-07T01:30:21.491Z,47.80
2019-04-07T01:32:58.188Z,48.10
2019-04-07T01:35:27.607Z,48.20
2019-04-07T01:37:59.814Z,48.20
2019-04-07T01:40:33.103Z,48.30
2019-04-07T01:43:25.903Z,48.40
2019-04-07T01:46:14.197Z,48.50
2019-04-07T01:48:57.466Z,48.40
2019-04-07T01:51:45.542Z,48.20
2019-04-07T01:54:37.225Z,48.10
2019-04-07T01:57:14.665Z,47.90
2019-04-07T02:00:06.160Z,47.70
2019-04-07T02:02:54.538Z,47.30
2019-04-07T02:05:41.771Z,47.00
2019-04-07T02:08:48.126Z,46.70
2019-04-07T02:11:42.038Z,46.40
2019-04-07T02:14:32.746Z,46.20
2019-04-07T02:17:28.447Z,46.10
2019-04-07T02:20:23.186Z,46.00
2019-04-07T02:23:11.706Z,46.00
2019-04-07T02:25:49.361Z,46.10
2019-04-07T02:28:43.134Z,46.10
2019-04-07T02:31:31.923Z,46.00
2019-04-07T02:34:29.796Z,46.10
2019-04-07T02:37:24.538Z,46.10
2019-04-07T02:40:19.165Z,46.20
2019-04-07T02:43:17.958Z,46.20
2019-04-07T02:46:12.830Z,46.20
2019-04-07T02:49:08.182Z,46.30
2019-04-07T02:51:55.096Z,46.20
2019-04-07T02:54:46.326Z,46.20
2019-04-07T02:57:22.760Z,46.40
2019-04-07T03:00:09.854Z,46.40
2019-04-07T03:03:14.097Z,46.50
2019-04-07T03:06:38.133Z,46.50
2019-04-07T03:09:11.794Z,46.60
2019-04-07T03:12:12.421Z,46.70
2019-04-07T03:15:09.059Z,46.70
2019-04-07T03:18:11.938Z,46.60
2019-04-07T03:21:02.423Z,46.60
2019-04-07T03:23:43.996Z,46.50
2019-04-07T03:26:35.253Z,46.50
2019-04-07T03:29:33.317Z,46.50
2019-04-07T03:32:37.552Z,46.50
2019-04-07T03:35:26.534Z,46.60
2019-04-07T03:38:22.258Z,46.70
2019-04-07T03:41:21.352Z,46.60
2019-04-07T03:43:59.241Z,46.60
2019-04-07T03:47:06.971Z,46.70
2019-04-07T03:49:55.055Z,46.60
2019-04-07T03:52:51.446Z,46.50
2019-04-07T03:55:42.592Z,46.50
2019-04-07T03:58:21.251Z,46.50
2019-04-07T04:01:19.060Z,46.50
2019-04-07T04:03:59.268Z,47.20
2019-04-07T04:06:47.684Z,46.60
2019-04-07T04:09:26.432Z,46.50
2019-04-07T04:12:24.348Z,46.50
2019-04-07T04:15:00.123Z,46.50
2019-04-07T04:17:30.733Z,46.50
2019-04-07T04:20:00.348Z,46.50
2019-04-07T04:22:30.662Z,46.50
2019-04-07T04:25:00.929Z,46.50
2019-04-07T04:27:31.264Z,46.60
2019-04-07T04:30:10.793Z,46.50
2019-04-07T04:32:44.390Z,46.50
2019-04-07T04:35:34.976Z,46.50
2019-04-07T04:38:05.919Z,46.40
2019-04-07T04:40:38.430Z,46.50
2019-04-07T04:43:10.410Z,46.50
2019-04-07T04:45:46.147Z,46.50
2019-04-07T04:48:19.695Z,46.50
2019-04-07T04:50:50.420Z,47.20
2019-04-07T04:53:19.628Z,46.40
2019-04-07T04:56:04.425Z,46.40
2019-04-07T04:58:35.967Z,46.30
2019-04-07T05:01:06.963Z,46.40
2019-04-07T05:06:24.261Z,46.60
2019-04-07T05:09:01.132Z,46.50
2019-04-07T05:11:30.561Z,46.50
2019-04-07T05:14:00.277Z,46.50
2019-04-07T05:16:31.247Z,46.40
2019-04-07T05:19:00.657Z,46.40
2019-04-07T05:21:30.344Z,46.40
2019-04-07T05:24:12.039Z,46.40
2019-04-07T05:26:43.062Z,46.40
2019-04-07T05:29:12.796Z,46.30
2019-04-07T05:31:41.825Z,46.30
2019-04-07T05:34:15.573Z,46.30
2019-04-07T05:36:43.602Z,46.30
2019-04-07T05:39:15.331Z,46.40
2019-04-07T05:41:45.003Z,46.50
2019-04-07T05:44:15.382Z,46.70
2019-04-07T05:46:49.788Z,46.90
2019-04-07T05:49:27.087Z,47.10
2019-04-07T05:52:12.759Z,47.10
2019-04-07T05:54:44.040Z,47.30
2019-04-07T06:00:04.237Z,47.60
2019-04-07T06:02:35.247Z,47.40
2019-04-07T06:05:12.623Z,47.30
2019-04-07T06:30:02.443Z,47.20
2019-04-07T06:32:22.002Z,47.20
2019-04-07T06:34:50.983Z,47.20
2019-04-07T06:37:21.015Z,47.20
2019-04-07T06:39:54.829Z,47.70
2019-04-07T06:42:24.202Z,47.00
2019-04-07T06:44:59.804Z,47.10
2019-04-07T06:47:33.502Z,47.20
2019-04-07T06:50:27.915Z,47.30
2019-04-07T06:53:24.561Z,47.20
2019-04-07T06:56:14.326Z,47.10
2019-04-07T06:59:06.775Z,47.10
2019-04-07T07:01:58.113Z,47.10
2019-04-07T07:05:00.582Z,47.00
2019-04-07T07:08:24.638Z,47.00
2019-04-07T07:11:24.619Z,47.00
2019-04-07T07:14:03.297Z,46.90
2019-04-07T07:16:58.742Z,47.00
2019-04-07T07:19:56.615Z,47.00
2019-04-07T07:22:40.283Z,47.00
2019-04-07T07:25:12.399Z,47.10
2019-04-07T07:27:47.730Z,47.40
2019-04-07T07:30:24.129Z,47.20
2019-04-07T07:32:54.178Z,47.10
2019-04-07T07:38:26.667Z,47.10
2019-04-07T07:46:31.076Z,47.10
2019-04-07T07:49:04.432Z,47.20
2019-04-07T07:54:17.237Z,47.20
2019-04-07T07:56:51.645Z,47.10
2019-04-07T07:59:30.729Z,47.30
2019-04-07T08:01:58.698Z,47.30
2019-04-07T08:04:30.233Z,47.40
2019-04-07T08:07:04.324Z,47.20
2019-04-07T08:15:45.774Z,47.10
2019-04-07T08:21:28.055Z,46.90
2019-04-07T08:24:21.903Z,46.90
2019-04-07T08:26:33.788Z,47.50
2019-04-07T08:31:51.555Z,47.00
2019-04-07T08:34:19.765Z,47.10
2019-04-07T08:36:51.937Z,47.10
2019-04-07T08:39:26.748Z,47.20
2019-04-07T08:41:54.291Z,47.30
2019-04-07T08:44:26.931Z,47.30
2019-04-07T08:46:57.808Z,47.40
2019-04-07T08:49:32.271Z,47.40
2019-04-07T08:52:09.041Z,47.40
2019-04-07T08:54:33.615Z,47.50
2019-04-07T08:57:05.701Z,47.60
2019-04-07T09:02:32.203Z,47.80
2019-04-07T21:16:40.094Z,51.00
2019-04-07T21:19:37.366Z,49.50
2019-04-07T21:22:12.468Z,49.50
2019-04-07T21:24:59.087Z,49.20
2019-04-07T21:27:52.740Z,49.00
2019-04-07T21:33:17.396Z,48.60
2019-04-07T21:36:18.562Z,48.30
2019-04-07T21:39:05.840Z,48.20
2019-04-07T21:42:01.820Z,48.10
2019-04-07T21:45:03.953Z,48.10
2019-04-07T21:47:44.084Z,48.10
2019-04-07T21:50:32.494Z,48.20
2019-04-07T21:53:30.904Z,48.20
2019-04-07T21:56:29.427Z,47.90
2019-04-07T21:59:21.508Z,47.90
2019-04-07T22:02:15.456Z,47.80
2019-04-07T22:04:56.761Z,47.60
2019-04-07T22:07:53.549Z,47.70
2019-04-07T22:10:23.097Z,47.60
2019-04-07T22:12:52.667Z,47.50
2019-04-07T22:18:13.465Z,47.30
2019-04-07T22:20:45.353Z,47.30
2019-04-07T22:23:16.689Z,47.20
2019-04-07T22:25:50.590Z,47.10
2019-04-07T22:28:30.259Z,47.10
2019-04-07T22:30:59.844Z,47.00
2019-04-07T22:33:38.949Z,47.00
2019-04-07T22:36:25.589Z,47.00
2019-04-07T22:38:58.730Z,47.00
2019-04-07T22:41:28.672Z,47.00
2019-04-07T22:44:13.393Z,47.00
2019-04-07T22:46:48.044Z,46.90
2019-04-07T22:49:32.207Z,46.90
2019-04-07T22:52:03.533Z,46.90
2019-04-07T22:54:34.858Z,46.90
2019-04-07T22:57:08.157Z,46.90
2019-04-07T22:59:34.836Z,46.90
2019-04-07T23:02:27.647Z,46.70
2019-04-07T23:04:57.081Z,46.80
2019-04-07T23:07:42.018Z,46.70
2019-04-07T23:10:11.248Z,46.80
2019-04-07T23:12:42.297Z,46.60
2019-04-07T23:15:13.465Z,47.20
2019-04-07T23:17:44.465Z,46.90
2019-04-07T23:20:17.196Z,46.80
2019-04-07T23:22:47.204Z,46.70
2019-04-07T23:25:17.608Z,46.60
2019-04-07T23:27:46.939Z,46.50
2019-04-07T23:30:17.261Z,46.60
2019-04-07T23:32:47.943Z,46.60
2019-04-07T23:35:20.105Z,46.40
2019-04-07T23:37:49.020Z,46.30
2019-04-07T23:40:22.641Z,46.40
2019-04-07T23:43:00.605Z,46.30
2019-04-07T23:45:27.431Z,46.30
2019-04-07T23:48:15.878Z,46.50
2019-04-07T23:50:47.909Z,46.40
2019-04-07T23:53:53.761Z,46.50
2019-04-07T23:56:29.703Z,46.50
2019-04-07T23:59:08.397Z,46.60
